Time,TemperatureF,DewpointF,PressureIn,WindDirection,WindDirectionDegrees,WindSpeedMPH,WindSpeedGustMPH,Humidity,HourlyPrecipIn,Conditions,Clouds,dailyrainin,SolarRadiationWatts/m^2,SoftwareType,DateUTC
2013-03-07 00:00:00,44.2,44.2,29.94,SSW,202,0.0,0.0,100,0.00,,,0.00,0.00,VWS V14.01,2013-03-07 08:00:00,
2013-03-07 00:05:00,44.2,44.2,29.94,South,180,0.0,0.0,100,0.00,,,0.00,0.00,VWS V14.01,2013-03-07 08:05:00,
2013-03-07 00:10:00,44.2,44.2,29.94,SSW,202,0.0,0.0,100,0.00,,,0.00,0.00,VWS V14.01,2013-03-07 08:10:00,
2013-03-07 00:15:00,44.2,44.2,29.94,SSW,202,0.0,0.0,100,0.00,,,0.00,0.00,VWS V14.01,2013-03-07 08:15:00,
2013-03-07 00:20:00,44.2,44.2,29.94,SSW,202,0.0,0.0,100,0.00,,,0.00,0.00,VWS V14.01,2013-03-07 08:20:00,
2013-03-07 00:25:00,44.1,44.1,29.94,SSW,202,0.0,0.0,100,0.00,,,0.00,0.00,VWS V14.01,2013-03-07 08:25:00,
2013-03-07 00:30:00,44.2,44.2,29.94,SSW,202,0.0,0.0,100,0.00,,,0.00,0.00,VWS V14.01,2013-03-07 08:30:00,
2013-03-07 00:36:00,44.2,44.2,29.94,SSW,202,0.0,0.0,100,0.00,,,0.00,0.00,VWS V14.01,2013-03-07 08:36:00,
2013-03-07 00:41:00,44.2,44.2,29.94,SSW,202,0.0,0.0,100,0.00,,,0.00,0.00,VWS V14.01,2013-03-07 08:41:00,
2013-03-07 00:45:00,43.3,43.3,29.91,SSW,202,0.0,0.0,100,0.00,,,0.00,0.00,VWS V14.01,2013-03-07 08:45:00,
2013-03-07 00:46:00,44.4,44.4,29.94,WSW,248,2.0,2.0,100,0.00,,,0.08,0.00,VWS V14.01,2013-03-07 08:46:00,
2013-03-07 00:51:00,44.6,44.6,29.94,SSW,202,0.0,2.0,100,0.00,,,0.00,0.00,VWS V14.01,2013-03-07 08:51:00,
2013-03-07 00:56:00,44.6,44.6,29.94,South,180,0.0,2.0,100,0.00,,,0.00,0.00,VWS V14.01,2013-03-07 08:56:00,
2013-03-07 01:00:00,43.3,43.3,29.91,South,180,0.0,1.6,100,0.00,,,0.00,0.00,VWS V14.01,2013-03-07 09:00:00,
2013-03-07 01:01:00,44.6,44.6,29.94,South,180,0.0,0.0,100,0.00,,,0.00,0.00,VWS V14.01,2013-03-07 09:01:00,
2013-03-07 01:07:00,44.4,44.4,29.94,SSW,202,1.6,1.6,100,0.00,,,0.00,0.00,VWS V14.01,2013-03-07 09:07:00,
2013-03-07 01:12:00,44.4,44.4,29.94,South,180,0.9,1.6,100,0.00,,,0.00,0.00,VWS V14.01,2013-03-07 09:12:00,
2013-03-07 01:15:00,43.5,43.5,29.91,South,180,0.0,0.0,100,0.00,,,0.00,0.00,VWS V14.01,2013-03-07 09:15:00,
2013-03-07 01:17:00,44.4,44.4,29.94,South,180,0.0,1.1,100,0.00,,,0.00,0.00,VWS V14.01,2013-03-07 09:17:00,
2013-03-07 01:22:00,44.6,44.6,29.94,South,180,0.0,1.1,100,0.00,,,0.00,0.00,VWS V14.01,2013-03-07 09:22:00,
2013-03-07 01:27:00,44.2,44.2,29.94,South,180,0.0,1.1,100,0.00,,,0.00,0.00,VWS V14.01,2013-03-07 09:27:00,
2013-03-07 01:30:00,43.9,43.9,29.91,SSW,202,0.0,1.1,100,0.00,,,0.00,0.00,VWS V14.01,2013-03-07 09:30:00,
2013-03-07 01:32:00,43.9,43.9,29.94,NNE,22,0.0,0.0,100,0.00,,,0.00,0.00,VWS V14.01,2013-03-07 09:32:00,
2013-03-07 01:37:00,43.5,43.5,29.91,NNE,22,0.0,0.0,100,0.00,,,0.00,0.00,VWS V14.01,2013-03-07 09:37:00,
2013-03-07 01:42:00,43.5,43.5,29.91,SSW,202,0.0,0.0,100,0.00,,,0.00,0.00,VWS V14.01,2013-03-07 09:42:00,
2013-03-07 01:45:00,43.7,43.7,29.91,SSW,202,0.0,2.0,100,0.00,,,0.00,0.00,VWS V14.01,2013-03-07 09:45:00,
2013-03-07 01:47:00,43.3,43.3,29.91,South,180,0.0,0.0,100,0.00,,,0.00,0.00,VWS V14.01,2013-03-07 09:47:00,
2013-03-07 01:52:00,43.3,43.3,29.91,SSW,202,1.3,1.6,100,0.00,,,0.00,0.00,VWS V14.01,2013-03-07 09:52:00,
2013-03-07 01:57:00,43.3,43.3,29.91,South,180,0.0,1.6,100,0.00,,,0.00,0.00,VWS V14.01,2013-03-07 09:57:00,
2013-03-07 02:00:00,43.7,43.7,29.88,SSW,202,0.0,0.0,100,0.00,,,0.00,0.00,VWS V14.01,2013-03-07 10:00:00,
2013-03-07 02:02:00,43.3,43.3,29.91,South,180,0.0,0.0,100,0.00,,,0.00,0.00,VWS V14.01,2013-03-07 10:02:00,
2013-03-07 02:08:00,43.3,43.3,29.91,South,180,0.0,0.0,100,0.00,,,0.00,0.00,VWS V14.01,2013-03-07 10:08:00,
2013-03-07 02:13:00,43.5,43.5,29.91,South,180,0.0,0.0,100,0.00,,,0.00,0.00,VWS V14.01,2013-03-07 10:13:00,
2013-03-07 02:15:00,44.1,44.1,29.88,SSW,202,0.0,2.0,100,0.00,,,0.00,0.00,VWS V14.01,2013-03-07 10:15:00,
2013-03-07 02:18:00,43.7,43.7,29.91,South,180,0.9,1.1,100,0.00,,,0.00,0.00,VWS V14.01,2013-03-07 10:18:00,
2013-03-07 02:23:00,43.9,43.9,29.91,South,180,0.0,1.1,100,0.00,,,0.00,0.00,VWS V14.01,2013-03-07 10:23:00,
2013-03-07 02:28:00,44.1,44.1,29.91,SSW,202,0.0,1.1,100,0.00,,,0.00,0.00,VWS V14.01,2013-03-07 10:28:00,
2013-03-07 02:30:00,44.1,44.1,29.88,South,180,0.0,1.3,100,0.00,,,0.00,0.00,VWS V14.01,2013-03-07 10:30:00,
2013-03-07 02:34:00,44.2,44.2,29.91,SSW,202,1.6,2.0,100,0.00,,,0.00,0.00,VWS V14.01,2013-03-07 10:34:00,
2013-03-07 02:39:00,44.1,44.1,29.91,SSW,202,0.0,2.0,100,0.00,,,0.00,0.00,VWS V14.01,2013-03-07 10:39:00,
2013-03-07 02:44:00,43.9,43.9,29.91,ENE,68,0.0,2.0,100,0.00,,,0.00,0.00,VWS V14.01,2013-03-07 10:44:00,
2013-03-07 02:45:00,44.1,44.1,29.88,South,180,0.0,1.3,100,0.00,,,0.00,0.00,VWS V14.01,2013-03-07 10:45:00,
2013-03-07 02:49:00,43.7,43.7,29.91,SSW,202,0.0,0.0,100,0.00,,,0.00,0.00,VWS V14.01,2013-03-07 10:49:00,
2013-03-07 02:54:00,43.5,43.5,29.88,SSW,202,0.0,0.0,100,0.00,,,0.00,0.00,VWS V14.01,2013-03-07 10:54:00,
2013-03-07 02:59:00,43.7,43.7,29.88,SSW,202,0.0,0.0,100,0.00,,,0.00,0.00,VWS V14.01,2013-03-07 10:59:00,
2013-03-07 03:00:00,44.1,44.1,29.88,South,180,0.0,0.0,100,0.00,,,0.00,0.00,VWS V14.01,2013-03-07 11:00:00,
2013-03-07 03:04:00,43.7,43.7,29.88,SSW,202,0.9,2.0,100,0.00,,,0.00,0.00,VWS V14.01,2013-03-07 11:04:00,
2013-03-07 03:09:00,43.7,43.7,29.88,SSW,202,0.0,2.0,100,0.00,,,0.00,0.00,VWS V14.01,2013-03-07 11:09:00,
2013-03-07 03:14:00,44.1,44.1,29.88,SSW,202,0.0,2.0,100,0.00,,,0.00,0.00,VWS V14.01,2013-03-07 11:14:00,
2013-03-07 03:15:00,44.6,44.6,29.88,South,180,0.0,0.0,100,0.00,,,0.00,0.00,VWS V14.01,2013-03-07 11:15:00,
2013-03-07 03:19:00,44.1,44.1,29.88,SSW,202,0.0,0.0,100,0.00,,,0.00,0.00,VWS V14.01,2013-03-07 11:19:00,
2013-03-07 03:24:00,43.9,43.9,29.88,SSW,202,0.9,1.3,100,0.00,,,0.00,0.00,VWS V14.01,2013-03-07 11:24:00,
2013-03-07 03:29:00,44.1,44.1,29.88,South,180,0.0,1.3,100,0.00,,,0.00,0.00,VWS V14.01,2013-03-07 11:29:00,
2013-03-07 03:30:00,45.1,45.1,29.88,South,180,0.0,0.0,100,0.00,,,0.00,0.00,VWS V14.01,2013-03-07 11:30:00,
2013-03-07 03:34:00,44.1,44.1,29.88,South,180,1.3,1.3,100,0.00,,,0.00,0.00,VWS V14.01,2013-03-07 11:34:00,
2013-03-07 03:39:00,44.2,44.2,29.88,South,180,0.0,1.3,100,0.00,,,0.00,0.00,VWS V14.01,2013-03-07 11:39:00,
2013-03-07 03:44:00,44.1,44.1,29.88,South,180,0.0,1.3,100,0.00,,,0.00,0.00,VWS V14.01,2013-03-07 11:44:00,
2013-03-07 03:45:00,45.1,45.1,29.88,South,180,0.0,0.0,100,0.00,,,0.00,0.00,VWS V14.01,2013-03-07 11:45:00,
2013-03-07 03:50:00,44.1,44.1,29.88,South,180,0.0,0.0,100,0.00,,,0.00,0.00,VWS V14.01,2013-03-07 11:50:00,
2013-03-07 03:55:00,44.1,44.1,29.88,South,180,0.0,0.0,100,0.00,,,0.00,0.00,VWS V14.01,2013-03-07 11:55:00,
2013-03-07 04:00:00,44.1,44.1,29.88,South,180,0.0,0.0,100,0.00,,,0.00,0.00,VWS V14.01,2013-03-07 12:00:00,
2013-03-07 04:05:00,44.2,44.2,29.88,South,180,0.0,0.0,100,0.00,,,0.00,0.00,VWS V14.01,2013-03-07 12:05:00,
2013-03-07 04:10:00,44.2,44.2,29.88,South,180,0.0,0.0,100,0.00,,,0.00,0.00,VWS V14.01,2013-03-07 12:10:00,
2013-03-07 04:15:00,44.6,44.6,29.88,South,180,0.0,0.0,100,0.00,,,0.00,0.00,VWS V14.01,2013-03-07 12:15:00,
2013-03-07 04:20:00,44.6,44.6,29.88,South,180,0.0,0.0,100,0.00,,,0.00,0.00,VWS V14.01,2013-03-07 12:20:00,
2013-03-07 04:25:00,44.8,44.8,29.88,South,180,0.0,0.0,100,0.00,,,0.00,0.00,VWS V14.01,2013-03-07 12:25:00,
2013-03-07 04:30:00,45.1,45.1,29.88,South,180,0.0,0.0,100,0.00,,,0.00,0.00,VWS V14.01,2013-03-07 12:30:00,
2013-03-07 04:35:00,45.0,45.0,29.88,South,180,0.0,0.0,100,0.00,,,0.00,0.00,VWS V14.01,2013-03-07 12:35:00,
2013-03-07 04:41:00,45.1,45.1,29.88,South,180,0.0,0.0,100,0.00,,,0.00,0.00,VWS V14.01,2013-03-07 12:41:00,
2013-03-07 04:45:00,44.8,44.8,29.88,WNW,292,0.0,0.0,100,0.00,,,0.00,0.00,VWS V14.01,2013-03-07 12:45:00,
2013-03-07 04:46:00,45.0,45.0,29.88,South,180,0.0,0.0,100,0.00,,,0.00,0.00,VWS V14.01,2013-03-07 12:46:00,
2013-03-07 04:52:00,45.0,45.0,29.88,South,180,0.0,0.0,100,0.00,,,0.00,0.00,VWS V14.01,2013-03-07 12:52:00,
2013-03-07 04:57:00,45.0,45.0,29.88,South,180,0.0,0.0,100,0.00,,,0.00,0.00,VWS V14.01,2013-03-07 12:57:00,
2013-03-07 05:00:00,44.8,44.8,29.88,North,0,0.0,1.1,100,0.00,,,0.00,0.00,VWS V14.01,2013-03-07 13:00:00,
2013-03-07 05:02:00,45.0,45.0,29.88,South,180,0.0,0.0,100,0.00,,,0.00,0.00,VWS V14.01,2013-03-07 13:02:00,
2013-03-07 05:07:00,45.0,45.0,29.88,South,180,0.0,0.0,100,0.00,,,0.00,0.00,VWS V14.01,2013-03-07 13:07:00,
2013-03-07 05:12:00,45.0,45.0,29.88,South,180,0.0,0.9,100,0.00,,,0.00,0.00,VWS V14.01,2013-03-07 13:12:00,
2013-03-07 05:15:00,44.6,44.6,29.88,SE,135,0.0,0.0,100,0.00,,,0.00,0.00,VWS V14.01,2013-03-07 13:15:00,
2013-03-07 05:17:00,45.0,45.0,29.88,South,180,0.0,0.0,100,0.00,,,0.00,0.00,VWS V14.01,2013-03-07 13:17:00,
2013-03-07 05:22:00,45.1,45.1,29.88,South,180,0.0,0.0,100,0.00,,,0.00,0.00,VWS V14.01,2013-03-07 13:22:00,
2013-03-07 05:27:00,45.0,45.0,29.88,South,180,0.0,0.0,100,0.00,,,0.00,0.00,VWS V14.01,2013-03-07 13:27:00,
2013-03-07 05:30:00,44.2,44.2,29.85,SSE,158,0.0,0.0,100,0.00,,,0.00,0.00,VWS V14.01,2013-03-07 13:30:00,
2013-03-07 05:33:00,45.0,45.0,29.88,South,180,0.0,0.0,100,0.00,,,0.00,0.00,VWS V14.01,2013-03-07 13:33:00,
2013-03-07 05:38:00,44.8,44.8,29.88,WSW,248,0.0,0.0,100,0.00,,,0.00,0.00,VWS V14.01,2013-03-07 13:38:00,
2013-03-07 05:43:00,44.8,44.8,29.88,ESE,112,0.0,0.0,100,0.00,,,0.00,0.00,VWS V14.01,2013-03-07 13:43:00,
2013-03-07 05:45:00,43.9,43.9,29.88,SSE,158,0.0,0.0,100,0.00,,,0.00,0.00,VWS V14.01,2013-03-07 13:45:00,
2013-03-07 05:48:00,44.8,44.8,29.88,West,270,0.0,0.0,100,0.00,,,0.00,0.00,VWS V14.01,2013-03-07 13:48:00,
2013-03-07 05:54:00,44.8,44.8,29.88,SSE,158,0.0,0.0,100,0.00,,,0.00,0.00,VWS V14.01,2013-03-07 13:54:00,
2013-03-07 05:59:00,44.8,44.8,29.88,WSW,248,1.1,1.1,100,0.00,,,0.00,0.00,VWS V14.01,2013-03-07 13:59:00,
2013-03-07 06:00:00,44.1,44.1,29.88,SSE,158,0.0,0.0,100,0.00,,,0.00,0.00,VWS V14.01,2013-03-07 14:00:00,
2013-03-07 06:04:00,44.6,44.6,29.88,ESE,112,0.0,0.0,100,0.00,,,0.00,0.00,VWS V14.01,2013-03-07 14:04:00,
2013-03-07 06:09:00,44.6,44.6,29.88,ESE,112,0.0,0.0,100,0.00,,,0.00,0.00,VWS V14.01,2013-03-07 14:09:00,
2013-03-07 06:14:00,44.6,44.6,29.88,SE,135,0.0,0.0,100,0.00,,,0.00,0.00,VWS V14.01,2013-03-07 14:14:00,
2013-03-07 06:15:00,44.6,44.6,29.85,SSE,158,0.0,0.0,100,0.00,,,0.00,0.00,VWS V14.01,2013-03-07 14:15:00,
2013-03-07 06:19:00,44.4,44.4,29.88,SSE,158,0.0,0.0,100,0.00,,,0.00,0.00,VWS V14.01,2013-03-07 14:19:00,
2013-03-07 06:24:00,44.4,44.4,29.85,SSE,158,0.0,0.0,100,0.00,,,0.00,0.00,VWS V14.01,2013-03-07 14:24:00,
2013-03-07 06:29:00,44.2,44.2,29.85,SSE,158,0.0,0.0,100,0.00,,,0.00,0.00,VWS V14.01,2013-03-07 14:29:00,
2013-03-07 06:30:00,44.4,44.4,29.85,SSE,158,0.0,0.0,100,0.00,,,0.00,0.00,VWS V14.01,2013-03-07 14:30:00,
2013-03-07 06:34:00,44.2,44.2,29.85,SSE,158,0.0,0.0,100,0.00,,,0.00,0.00,VWS V14.01,2013-03-07 14:34:00,
2013-03-07 06:39:00,44.1,44.1,29.88,SSE,158,0.0,0.0,100,0.00,,,0.00,0.00,VWS V14.01,2013-03-07 14:39:00,
2013-03-07 06:44:00,43.9,43.9,29.88,SSE,158,0.0,0.0,100,0.00,,,0.00,0.00,VWS V14.01,2013-03-07 14:44:00,
2013-03-07 06:45:00,44.6,44.6,29.85,SSE,158,0.0,0.0,100,0.00,,,0.00,0.00,VWS V14.01,2013-03-07 14:45:00,
2013-03-07 06:49:00,44.1,44.1,29.88,SSE,158,0.0,0.0,100,0.00,,,0.00,0.00,VWS V14.01,2013-03-07 14:49:00,
2013-03-07 06:54:00,44.1,44.1,29.88,SSE,158,0.0,0.0,100,0.00,,,0.00,0.00,VWS V14.01,2013-03-07 14:54:00,
2013-03-07 06:59:00,44.1,44.1,29.88,SSE,158,0.0,0.0,100,0.00,,,0.00,0.00,VWS V14.01,2013-03-07 14:59:00,
2013-03-07 07:00:00,45.1,45.1,29.88,SSE,158,0.0,0.0,100,0.00,,,0.00,0.00,VWS V14.01,2013-03-07 15:00:00,
2013-03-07 07:05:00,44.2,44.2,29.88,SSE,158,0.0,0.0,100,0.00,,,0.00,0.00,VWS V14.01,2013-03-07 15:05:00,
2013-03-07 07:10:00,44.6,44.6,29.85,SSE,158,0.0,0.0,100,0.00,,,0.00,0.00,VWS V14.01,2013-03-07 15:10:00,
2013-03-07 07:15:00,44.6,44.6,29.85,SSE,158,0.0,0.0,100,0.00,,,0.00,0.00,VWS V14.01,2013-03-07 15:15:00,
2013-03-07 07:20:00,44.2,44.2,29.85,SSE,158,0.0,0.0,100,0.00,,,0.00,0.00,VWS V14.01,2013-03-07 15:20:00,
2013-03-07 07:27:00,44.4,44.4,29.85,SSE,158,0.0,0.0,100,0.00,,,0.00,0.00,VWS V14.01,2013-03-07 15:27:00,
2013-03-07 07:30:00,46.2,46.2,29.85,ENE,68,0.0,0.0,100,0.00,,,0.00,0.00,VWS V14.01,2013-03-07 15:30:00,
2013-03-07 07:32:00,44.4,44.4,29.85,SSE,158,0.0,0.0,100,0.00,,,0.00,0.00,VWS V14.01,2013-03-07 15:32:00,
2013-03-07 07:38:00,44.6,44.6,29.85,SSE,158,0.0,0.0,100,0.00,,,0.00,0.00,VWS V14.01,2013-03-07 15:38:00,
2013-03-07 07:43:00,44.6,44.6,29.85,SSE,158,0.0,0.0,100,0.00,,,0.00,0.00,VWS V14.01,2013-03-07 15:43:00,
2013-03-07 07:45:00,47.3,47.3,29.88,ENE,68,0.0,0.0,100,0.00,,,0.00,0.00,VWS V14.01,2013-03-07 15:45:00,
2013-03-07 07:49:00,44.8,44.8,29.85,SSE,158,0.0,0.0,100,0.00,,,0.00,0.00,VWS V14.01,2013-03-07 15:49:00,
2013-03-07 07:54:00,44.8,44.8,29.88,SSE,158,0.0,0.0,100,0.00,,,0.00,0.00,VWS V14.01,2013-03-07 15:54:00,
2013-03-07 07:59:00,45.1,45.1,29.88,SSE,158,0.0,0.0,100,0.00,,,0.00,0.00,VWS V14.01,2013-03-07 15:59:00,
2013-03-07 08:00:00,47.8,47.8,29.85,East,90,0.0,3.4,100,0.00,,,0.00,0.00,VWS V14.01,2013-03-07 16:00:00,
2013-03-07 08:04:00,45.5,45.5,29.88,NE,45,1.1,1.6,100,0.00,,,0.00,0.00,VWS V14.01,2013-03-07 16:04:00,
2013-03-07 08:09:00,45.5,45.5,29.85,ENE,68,0.0,1.6,100,0.00,,,0.00,0.00,VWS V14.01,2013-03-07 16:09:00,
2013-03-07 08:14:00,45.7,45.7,29.85,ENE,68,0.0,1.6,100,0.00,,,0.00,0.00,VWS V14.01,2013-03-07 16:14:00,
2013-03-07 08:15:00,48.4,48.4,29.85,East,90,0.0,2.5,100,0.00,,,0.00,0.00,VWS V14.01,2013-03-07 16:15:00,
2013-03-07 08:20:00,45.9,45.9,29.85,ENE,68,0.0,0.0,100,0.00,,,0.00,0.00,VWS V14.01,2013-03-07 16:20:00,
2013-03-07 08:25:00,45.9,45.9,29.85,ENE,68,0.0,0.0,100,0.00,,,0.00,0.00,VWS V14.01,2013-03-07 16:25:00,
2013-03-07 08:30:00,46.2,46.2,29.85,ENE,68,0.0,0.0,100,0.00,,,0.00,0.00,VWS V14.01,2013-03-07 16:30:00,
2013-03-07 08:35:00,46.6,46.6,29.85,ENE,68,0.0,0.0,100,0.00,,,0.00,0.00,VWS V14.01,2013-03-07 16:35:00,
2013-03-07 08:40:00,46.9,46.9,29.88,ENE,68,0.0,0.0,100,0.00,,,0.00,0.00,VWS V14.01,2013-03-07 16:40:00,
2013-03-07 08:45:00,47.3,47.3,29.88,ENE,68,0.0,0.0,100,0.00,,,0.00,0.00,VWS V14.01,2013-03-07 16:45:00,
2013-03-07 08:50:00,47.7,47.7,29.88,NE,45,0.0,0.0,100,0.00,,,0.00,0.00,VWS V14.01,2013-03-07 16:50:00,
2013-03-07 08:55:00,47.8,47.8,29.85,NE,45,0.0,2.0,100,0.00,,,0.00,0.00,VWS V14.01,2013-03-07 16:55:00,
2013-03-07 09:00:00,47.8,47.8,29.85,ENE,68,0.0,0.0,100,0.00,,,0.00,0.00,VWS V14.01,2013-03-07 17:00:00,
2013-03-07 09:05:00,47.8,47.8,29.85,ENE,68,0.0,0.0,100,0.00,,,0.00,0.00,VWS V14.01,2013-03-07 17:05:00,
2013-03-07 09:10:00,47.8,47.8,29.85,ENE,68,0.0,2.5,100,0.00,,,0.00,0.00,VWS V14.01,2013-03-07 17:10:00,
2013-03-07 09:15:00,48.4,48.4,29.85,NNW,338,0.0,0.0,100,0.00,,,0.00,0.00,VWS V14.01,2013-03-07 17:15:00,
2013-03-07 09:20:00,48.6,48.6,29.85,North,0,0.0,0.0,100,0.00,,,0.00,0.00,VWS V14.01,2013-03-07 17:20:00,
2013-03-07 09:25:00,48.7,48.7,29.85,NE,45,0.0,2.0,100,0.00,,,0.00,0.00,VWS V14.01,2013-03-07 17:25:00,
2013-03-07 09:30:00,51.6,47.3,29.88,NNW,338,2.5,7.6,85,0.00,,,0.00,0.00,VWS V14.01,2013-03-07 17:30:00,
2013-03-07 09:31:00,48.7,48.7,29.85,North,0,1.6,3.8,100,0.00,,,0.00,0.00,VWS V14.01,2013-03-07 17:31:00,
2013-03-07 09:36:00,48.9,48.9,29.85,NW,315,0.0,3.8,100,0.00,,,0.00,0.00,VWS V14.01,2013-03-07 17:36:00,
2013-03-07 09:41:00,49.3,49.3,29.85,NNE,22,4.0,4.0,100,0.00,,,0.00,0.00,VWS V14.01,2013-03-07 17:41:00,
2013-03-07 09:45:00,51.6,46.6,29.85,NE,45,4.7,7.4,83,0.00,,,0.00,0.00,VWS V14.01,2013-03-07 17:45:00,
2013-03-07 09:46:00,49.6,49.6,29.85,East,90,0.0,0.0,100,0.00,,,0.00,0.00,VWS V14.01,2013-03-07 17:46:00,
2013-03-07 09:51:00,50.0,49.5,29.85,NNW,338,0.0,3.1,98,0.00,,,0.00,0.00,VWS V14.01,2013-03-07 17:51:00,
2013-03-07 09:56:00,50.5,49.7,29.85,NNE,22,4.3,4.7,97,0.00,,,0.00,0.00,VWS V14.01,2013-03-07 17:56:00,
2013-03-07 10:00:00,51.3,45.3,29.85,NE,45,2.9,5.6,80,0.00,,,0.00,0.00,VWS V14.01,2013-03-07 18:00:00,
2013-03-07 10:01:00,50.7,49.1,29.85,East,90,3.4,4.9,94,0.00,,,0.00,0.00,VWS V14.01,2013-03-07 18:01:00,
2013-03-07 10:06:00,50.9,47.5,29.85,NE,45,2.5,8.5,88,0.00,,,0.00,0.00,VWS V14.01,2013-03-07 18:06:00,
2013-03-07 10:11:00,50.5,46.8,29.85,NE,45,3.6,8.5,87,0.00,,,0.00,0.00,VWS V14.01,2013-03-07 18:11:00,
2013-03-07 10:15:00,51.8,44.8,29.85,NNE,22,2.2,6.0,77,0.00,,,0.00,0.00,VWS V14.01,2013-03-07 18:15:00,
2013-03-07 10:16:00,50.9,47.2,29.85,NE,45,4.7,4.7,87,0.00,,,0.00,0.00,VWS V14.01,2013-03-07 18:16:00,
2013-03-07 10:21:00,51.3,47.8,29.85,North,0,3.8,4.7,88,0.00,,,0.00,0.00,VWS V14.01,2013-03-07 18:21:00,
2013-03-07 10:26:00,51.1,46.4,29.88,North,0,1.3,7.6,84,0.00,,,0.00,0.00,VWS V14.01,2013-03-07 18:26:00,
2013-03-07 10:30:00,52.0,44.0,29.85,NE,45,0.0,6.0,74,0.00,,,0.00,0.00,VWS V14.01,2013-03-07 18:30:00,
2013-03-07 10:31:00,51.6,47.3,29.88,North,0,3.8,4.3,85,0.00,,,0.00,0.00,VWS V14.01,2013-03-07 18:31:00,
2013-03-07 10:36:00,50.9,45.0,29.88,NNE,22,3.1,7.4,80,0.00,,,0.00,0.00,VWS V14.01,2013-03-07 18:36:00,
2013-03-07 10:41:00,51.3,46.0,29.85,NE,45,3.4,7.4,82,0.00,,,0.00,0.00,VWS V14.01,2013-03-07 18:41:00,
2013-03-07 10:45:00,52.9,43.8,29.85,NE,45,6.5,6.5,71,0.00,,,0.00,0.00,VWS V14.01,2013-03-07 18:45:00,
2013-03-07 10:46:00,51.4,46.5,29.85,NNW,338,1.1,4.7,83,0.00,,,0.00,0.00,VWS V14.01,2013-03-07 18:46:00,
2013-03-07 10:51:00,51.3,46.0,29.85,NNE,22,2.7,4.7,82,0.00,,,0.00,0.00,VWS V14.01,2013-03-07 18:51:00,
2013-03-07 10:56:00,50.9,45.3,29.85,NE,45,0.9,5.6,81,0.00,,,0.00,0.00,VWS V14.01,2013-03-07 18:56:00,
2013-03-07 11:00:00,52.9,41.0,29.85,NNE,22,4.9,6.5,64,0.00,,,0.00,0.00,VWS V14.01,2013-03-07 19:00:00,
2013-03-07 11:01:00,51.3,45.6,29.85,North,0,0.0,2.9,81,0.00,,,0.00,0.00,VWS V14.01,2013-03-07 19:01:00,
2013-03-07 11:06:00,51.3,44.6,29.85,NNE,22,3.6,4.7,78,0.00,,,0.00,0.00,VWS V14.01,2013-03-07 19:06:00,
2013-03-07 11:11:00,51.4,44.5,29.85,North,0,4.0,6.0,77,0.00,,,0.00,0.00,VWS V14.01,2013-03-07 19:11:00,
2013-03-07 11:15:00,54.1,46.0,29.85,NE,45,4.7,6.3,74,0.00,,,0.00,0.00,VWS V14.01,2013-03-07 19:15:00,
2013-03-07 11:17:00,52.0,45.0,29.85,WNW,292,0.9,3.1,77,0.00,,,0.00,0.00,VWS V14.01,2013-03-07 19:17:00,
2013-03-07 11:22:00,52.0,44.3,29.85,NE,45,2.7,5.4,75,0.00,,,0.00,0.00,VWS V14.01,2013-03-07 19:22:00,
2013-03-07 11:27:00,51.8,43.8,29.85,NNE,22,4.0,6.0,74,0.00,,,0.00,0.00,VWS V14.01,2013-03-07 19:27:00,
2013-03-07 11:30:00,54.5,45.3,29.85,East,90,6.3,6.3,71,0.00,,,0.00,0.00,VWS V14.01,2013-03-07 19:30:00,
2013-03-07 11:32:00,52.5,45.2,29.85,NE,45,3.4,3.6,76,0.00,,,0.00,0.00,VWS V14.01,2013-03-07 19:32:00,
2013-03-07 11:38:00,52.7,44.3,29.85,North,0,2.5,6.5,73,0.00,,,0.00,0.00,VWS V14.01,2013-03-07 19:38:00,
2013-03-07 11:43:00,52.7,44.3,29.85,NNE,22,2.7,6.5,73,0.00,,,0.00,0.00,VWS V14.01,2013-03-07 19:43:00,
2013-03-07 11:45:00,54.5,45.7,29.82,NNE,22,2.0,6.3,72,0.00,,,0.00,0.00,VWS V14.01,2013-03-07 19:45:00,
2013-03-07 11:48:00,52.9,43.4,29.85,ENE,68,3.8,6.5,70,0.00,,,0.00,0.00,VWS V14.01,2013-03-07 19:48:00,
2013-03-07 11:53:00,52.9,43.4,29.85,ENE,68,4.3,6.5,70,0.00,,,0.00,0.00,VWS V14.01,2013-03-07 19:53:00,
2013-03-07 11:58:00,52.9,41.5,29.85,NE,45,2.7,6.5,65,0.00,,,0.00,0.00,VWS V14.01,2013-03-07 19:58:00,
2013-03-07 12:00:00,55.0,45.5,29.82,NNE,22,2.9,6.3,70,0.00,,,0.00,0.00,VWS V14.01,2013-03-07 20:00:00,
2013-03-07 12:03:00,53.4,41.6,29.85,East,90,3.4,4.9,64,0.00,,,0.00,0.00,VWS V14.01,2013-03-07 20:03:00,
2013-03-07 12:08:00,54.0,42.9,29.85,WNW,292,3.8,5.8,66,0.00,,,0.00,0.00,VWS V14.01,2013-03-07 20:08:00,
2013-03-07 12:13:00,54.3,45.9,29.85,NE,45,2.7,6.3,73,0.00,,,0.00,0.00,VWS V14.01,2013-03-07 20:13:00,
2013-03-07 12:15:00,55.2,44.9,29.82,NE,45,2.2,6.5,68,0.00,,,0.00,0.00,VWS V14.01,2013-03-07 20:15:00,
2013-03-07 12:18:00,54.5,46.8,29.85,NE,45,2.9,4.7,75,0.00,,,0.00,0.00,VWS V14.01,2013-03-07 20:18:00,
2013-03-07 12:23:00,54.7,46.6,29.85,North,0,2.9,4.7,74,0.00,,,0.00,0.00,VWS V14.01,2013-03-07 20:23:00,
2013-03-07 12:28:00,54.5,45.3,29.85,NNE,22,3.8,5.8,71,0.00,,,0.00,0.00,VWS V14.01,2013-03-07 20:28:00,
2013-03-07 12:30:00,55.0,43.5,29.82,NNE,22,2.5,6.0,65,0.00,,,0.00,0.00,VWS V14.01,2013-03-07 20:30:00,
2013-03-07 12:33:00,54.1,44.6,29.85,East,90,0.0,6.3,70,0.00,,,0.00,0.00,VWS V14.01,2013-03-07 20:33:00,
2013-03-07 12:38:00,54.1,45.0,29.82,NE,45,0.0,6.3,71,0.00,,,0.00,0.00,VWS V14.01,2013-03-07 20:38:00,
2013-03-07 12:43:00,54.5,45.7,29.82,NE,45,2.5,6.3,72,0.00,,,0.00,0.00,VWS V14.01,2013-03-07 20:43:00,
2013-03-07 12:45:00,55.0,43.9,29.82,East,90,1.3,4.3,66,0.00,,,0.00,0.00,VWS V14.01,2013-03-07 20:45:00,
2013-03-07 12:48:00,54.5,44.9,29.82,NE,45,0.0,2.9,70,0.00,,,0.00,0.00,VWS V14.01,2013-03-07 20:48:00,
2013-03-07 12:54:00,54.5,44.2,29.82,NE,45,3.1,4.0,68,0.00,,,0.00,0.00,VWS V14.01,2013-03-07 20:54:00,
2013-03-07 12:59:00,55.0,45.1,29.82,NE,45,2.0,6.3,69,0.00,,,0.00,0.00,VWS V14.01,2013-03-07 20:59:00,
2013-03-07 13:00:00,54.9,43.7,29.82,NNE,22,2.9,6.0,66,0.00,,,0.00,0.00,VWS V14.01,2013-03-07 21:00:00,
2013-03-07 13:04:00,54.9,44.5,29.82,NNE,22,5.6,5.6,68,0.00,,,0.00,0.00,VWS V14.01,2013-03-07 21:04:00,
2013-03-07 13:09:00,55.2,46.0,29.82,NE,45,3.4,5.6,71,0.00,,,0.00,0.00,VWS V14.01,2013-03-07 21:09:00,
2013-03-07 13:14:00,55.2,44.9,29.82,North,0,2.5,6.5,68,0.00,,,0.00,0.00,VWS V14.01,2013-03-07 21:14:00,
2013-03-07 13:15:00,55.4,44.2,29.79,ENE,68,2.5,4.9,66,0.00,,,0.00,0.00,VWS V14.01,2013-03-07 21:15:00,
2013-03-07 13:19:00,55.4,45.0,29.82,NE,45,3.1,5.4,68,0.00,,,0.00,0.00,VWS V14.01,2013-03-07 21:19:00,
2013-03-07 13:24:00,54.7,42.8,29.82,ENE,68,4.0,5.6,64,0.00,,,0.00,0.00,VWS V14.01,2013-03-07 21:24:00,
2013-03-07 13:29:00,55.0,43.5,29.82,NNE,22,2.5,6.0,65,0.00,,,0.00,0.00,VWS V14.01,2013-03-07 21:29:00,
2013-03-07 13:30:00,55.4,43.0,29.79,SW,225,0.0,4.0,63,0.00,,,0.00,0.00,VWS V14.01,2013-03-07 21:30:00,
2013-03-07 13:34:00,55.2,44.1,29.82,NE,45,1.3,4.3,66,0.00,,,0.00,0.00,VWS V14.01,2013-03-07 21:34:00,
2013-03-07 13:39:00,55.0,43.5,29.82,NE,45,3.8,4.3,65,0.00,,,0.00,0.00,VWS V14.01,2013-03-07 21:39:00,
2013-03-07 13:44:00,55.0,43.5,29.82,NNW,338,1.6,4.3,65,0.00,,,0.00,0.00,VWS V14.01,2013-03-07 21:44:00,
2013-03-07 13:45:00,51.6,44.7,29.79,South,180,5.4,8.7,77,0.00,,,0.00,0.00,VWS V14.01,2013-03-07 21:45:00,
2013-03-07 13:49:00,55.0,43.9,29.82,NE,45,4.3,4.3,66,0.00,,,0.00,0.00,VWS V14.01,2013-03-07 21:49:00,
2013-03-07 13:54:00,55.0,44.3,29.82,North,0,4.0,6.0,67,0.00,,,0.00,0.00,VWS V14.01,2013-03-07 21:54:00,
2013-03-07 14:00:00,54.9,43.7,29.82,ENE,68,2.2,6.0,66,0.00,,,0.00,0.00,VWS V14.01,2013-03-07 22:00:00,
2013-03-07 14:05:00,54.9,43.7,29.82,NE,45,2.0,4.9,66,0.00,,,0.00,0.00,VWS V14.01,2013-03-07 22:05:00,
2013-03-07 14:10:00,54.9,42.9,29.79,NNW,338,2.5,4.9,64,0.00,,,0.00,0.00,VWS V14.01,2013-03-07 22:10:00,
2013-03-07 14:15:00,55.4,44.2,29.79,ENE,68,2.5,4.9,66,0.00,,,0.00,0.00,VWS V14.01,2013-03-07 22:15:00,
2013-03-07 14:20:00,54.9,41.7,29.79,ESE,112,1.3,4.0,61,0.00,,,0.00,0.00,VWS V14.01,2013-03-07 22:20:00,
2013-03-07 14:25:00,55.0,42.3,29.79,East,90,2.7,4.0,62,0.00,,,0.00,0.00,VWS V14.01,2013-03-07 22:25:00,
2013-03-07 14:30:00,55.4,43.0,29.79,SW,225,0.0,0.0,63,0.00,,,0.00,0.00,VWS V14.01,2013-03-07 22:30:00,
2013-03-07 14:35:00,54.0,44.0,29.79,SSW,202,4.9,4.9,69,0.00,,,0.00,0.00,VWS V14.01,2013-03-07 22:35:00,
2013-03-07 14:40:00,52.3,45.0,29.79,SW,225,2.5,8.7,76,0.00,,,0.00,0.00,VWS V14.01,2013-03-07 22:40:00,
2013-03-07 14:45:00,51.6,44.7,29.79,ESE,112,7.4,7.4,77,0.00,,,0.00,0.00,VWS V14.01,2013-03-07 22:45:00,
2013-03-07 14:50:00,51.6,45.0,29.79,SSW,202,3.6,7.6,78,0.00,,,0.00,0.00,VWS V14.01,2013-03-07 22:50:00,
2013-03-07 14:55:00,51.4,44.8,29.79,South,180,4.7,9.0,78,0.00,,,0.00,0.00,VWS V14.01,2013-03-07 22:55:00,
2013-03-07 15:00:00,51.6,45.3,29.79,SSW,202,3.6,3.8,79,0.00,,,0.00,0.00,VWS V14.01,2013-03-07 23:00:00,
2013-03-07 15:05:00,51.8,45.5,29.79,SSW,202,0.0,3.8,79,0.00,,,0.00,0.00,VWS V14.01,2013-03-07 23:05:00,
2013-03-07 15:11:00,52.0,45.3,29.79,SSW,202,0.0,6.0,78,0.00,,,0.00,0.00,VWS V14.01,2013-03-07 23:11:00,
2013-03-07 15:15:00,50.7,47.9,29.79,SSE,158,3.1,9.4,90,0.00,,,0.00,0.00,VWS V14.01,2013-03-07 23:15:00,
2013-03-07 15:16:00,52.2,45.5,29.79,SSW,202,0.0,0.0,78,0.00,,,0.00,0.00,VWS V14.01,2013-03-07 23:16:00,
2013-03-07 15:21:00,52.2,44.1,29.79,ESE,112,3.1,4.3,74,0.00,,,0.00,0.00,VWS V14.01,2013-03-07 23:21:00,
2013-03-07 15:26:00,52.5,45.2,29.79,SW,225,0.0,4.3,76,0.00,,,0.00,0.00,VWS V14.01,2013-03-07 23:26:00,
2013-03-07 15:30:00,50.9,48.1,29.79,SSW,202,3.4,8.1,90,0.00,,,0.00,0.00,VWS V14.01,2013-03-07 23:30:00,
2013-03-07 15:31:00,52.7,44.7,29.79,SSE,158,2.7,5.6,74,0.00,,,0.00,0.00,VWS V14.01,2013-03-07 23:31:00,
2013-03-07 15:36:00,52.7,45.7,29.79,SW,225,2.5,5.6,77,0.00,,,0.00,0.00,VWS V14.01,2013-03-07 23:36:00,
2013-03-07 15:41:00,52.0,46.3,29.79,South,180,3.4,8.5,81,0.00,,,0.00,0.00,VWS V14.01,2013-03-07 23:41:00,
2013-03-07 15:45:00,49.8,48.2,29.79,South,180,2.7,10.7,94,0.00,,,0.00,0.00,VWS V14.01,2013-03-07 23:45:00,
2013-03-07 15:46:00,52.0,46.7,29.79,SE,135,3.1,4.9,82,0.00,,,0.00,0.00,VWS V14.01,2013-03-07 23:46:00,
2013-03-07 15:51:00,51.8,46.5,29.79,SSE,158,3.8,6.0,82,0.00,,,0.00,0.00,VWS V14.01,2013-03-07 23:51:00,
2013-03-07 15:56:00,51.6,47.0,29.79,South,180,5.4,7.6,84,0.00,,,0.00,0.00,VWS V14.01,2013-03-07 23:56:00,
2013-03-07 16:00:00,49.3,48.2,29.79,SSE,158,4.0,12.8,96,0.00,,,0.00,0.00,VWS V14.01,2013-03-08 00:00:00,
2013-03-07 16:01:00,50.9,46.9,29.79,SSE,158,6.0,9.4,86,0.00,,,0.00,0.00,VWS V14.01,2013-03-08 00:01:00,
2013-03-07 16:06:00,50.9,47.2,29.79,South,180,4.7,9.4,87,0.00,,,0.00,0.00,VWS V14.01,2013-03-08 00:06:00,
2013-03-07 16:11:00,50.7,47.6,29.79,SSW,202,4.9,9.4,89,0.00,,,0.00,0.00,VWS V14.01,2013-03-08 00:11:00,
2013-03-07 16:15:00,49.3,46.8,29.79,SSW,202,5.6,13.2,91,0.00,,,0.00,0.00,VWS V14.01,2013-03-08 00:15:00,
2013-03-07 16:16:00,50.5,48.0,29.79,South,180,3.8,8.1,91,0.00,,,0.00,0.00,VWS V14.01,2013-03-08 00:16:00,
2013-03-07 16:21:00,50.5,48.0,29.79,SSW,202,2.9,8.1,91,0.00,,,0.00,0.00,VWS V14.01,2013-03-08 00:21:00,
2013-03-07 16:27:00,50.7,47.9,29.79,South,180,3.6,8.1,90,0.00,,,0.00,0.00,VWS V14.01,2013-03-08 00:27:00,
2013-03-07 16:30:00,49.3,45.9,29.76,SSW,202,3.8,9.6,88,0.00,,,0.00,0.00,VWS V14.01,2013-03-08 00:30:00,
2013-03-07 16:32:00,50.7,47.9,29.79,South,180,0.9,6.5,90,0.00,,,0.00,0.00,VWS V14.01,2013-03-08 00:32:00,
2013-03-07 16:37:00,50.2,48.2,29.79,SSW,202,5.4,10.3,93,0.00,,,0.00,0.00,VWS V14.01,2013-03-08 00:37:00,
2013-03-07 16:42:00,50.0,48.1,29.79,SSW,202,7.4,10.7,93,0.00,,,0.00,0.00,VWS V14.01,2013-03-08 00:42:00,
2013-03-07 16:45:00,49.5,44.8,29.76,SE,135,4.9,10.7,84,0.00,,,0.00,0.00,VWS V14.01,2013-03-08 00:45:00,
2013-03-07 16:47:00,49.8,48.2,29.79,SSW,202,9.0,11.0,94,0.00,,,0.00,0.00,VWS V14.01,2013-03-08 00:47:00,
2013-03-07 16:52:00,49.6,48.3,29.79,South,180,1.6,12.8,95,0.00,,,0.00,0.00,VWS V14.01,2013-03-08 00:52:00,
2013-03-07 16:57:00,49.5,48.4,29.79,SSW,202,5.8,12.8,96,0.00,,,0.00,0.00,VWS V14.01,2013-03-08 00:57:00,
2013-03-07 17:00:00,49.5,44.8,29.79,South,180,4.9,8.5,84,0.00,,,0.00,0.00,VWS V14.01,2013-03-08 01:00:00,
2013-03-07 17:02:00,49.3,47.9,29.79,SSW,202,5.6,8.7,95,0.00,,,0.00,0.00,VWS V14.01,2013-03-08 01:02:00,
2013-03-07 17:08:00,49.5,47.2,29.79,South,180,11.0,11.0,92,0.00,,,0.00,0.00,VWS V14.01,2013-03-08 01:08:00,
2013-03-07 17:13:00,49.3,47.1,29.79,WSW,248,5.4,13.2,92,0.00,,,0.00,0.00,VWS V14.01,2013-03-08 01:13:00,
2013-03-07 17:15:00,48.7,45.7,29.79,SSW,202,3.6,6.5,89,0.00,,,0.00,0.00,VWS V14.01,2013-03-08 01:15:00,
2013-03-07 17:18:00,49.1,46.6,29.79,SSE,158,6.0,9.0,91,0.00,,,0.00,0.00,VWS V14.01,2013-03-08 01:18:00,
2013-03-07 17:24:00,49.1,46.3,29.76,SSW,202,6.0,9.0,90,0.00,,,0.00,0.00,VWS V14.01,2013-03-08 01:24:00,
2013-03-07 17:29:00,49.1,46.0,29.76,South,180,5.4,9.6,89,0.00,,,0.00,0.00,VWS V14.01,2013-03-08 01:29:00,
2013-03-07 17:30:00,48.2,46.8,29.79,SSW,202,3.4,5.6,95,0.00,,,0.00,0.00,VWS V14.01,2013-03-08 01:30:00,
2013-03-07 17:34:00,49.3,45.6,29.76,SSW,202,5.8,9.8,87,0.00,,,0.00,0.00,VWS V14.01,2013-03-08 01:34:00,
2013-03-07 17:39:00,49.5,45.5,29.76,South,180,4.7,9.8,86,0.00,,,0.00,0.00,VWS V14.01,2013-03-08 01:39:00,
2013-03-07 17:44:00,49.5,44.8,29.76,WNW,292,5.6,10.7,84,0.00,,,0.00,0.00,VWS V14.01,2013-03-08 01:44:00,
2013-03-07 17:45:00,48.2,46.8,29.79,SSW,202,3.4,6.3,95,0.00,,,0.00,0.00,VWS V14.01,2013-03-08 01:45:00,
2013-03-07 17:49:00,49.5,45.2,29.76,South,180,7.2,7.6,85,0.00,,,0.00,0.00,VWS V14.01,2013-03-08 01:49:00,
2013-03-07 17:54:00,49.5,45.2,29.79,SSE,158,3.4,8.5,85,0.00,,,0.00,0.00,VWS V14.01,2013-03-08 01:54:00,
2013-03-07 17:59:00,49.5,44.8,29.79,South,180,6.0,8.5,84,0.00,,,0.00,0.00,VWS V14.01,2013-03-08 01:59:00,
2013-03-07 18:00:00,48.6,46.1,29.79,SW,225,3.1,6.7,91,0.00,,,0.00,0.00,VWS V14.01,2013-03-08 02:00:00,
2013-03-07 18:04:00,49.1,45.1,29.79,SSW,202,5.6,5.6,86,0.00,,,0.00,0.00,VWS V14.01,2013-03-08 02:04:00,
2013-03-07 18:09:00,48.9,45.5,29.79,SW,225,4.3,6.5,88,0.00,,,0.00,0.00,VWS V14.01,2013-03-08 02:09:00,
2013-03-07 18:14:00,48.7,45.7,29.79,SSW,202,3.6,6.5,89,0.00,,,0.00,0.00,VWS V14.01,2013-03-08 02:14:00,
2013-03-07 18:15:00,48.7,45.0,29.82,SSW,202,3.4,10.3,87,0.00,,,0.00,0.00,VWS V14.01,2013-03-08 02:15:00,
2013-03-07 18:19:00,48.4,46.2,29.79,SW,225,2.2,5.4,92,0.00,,,0.00,0.00,VWS V14.01,2013-03-08 02:19:00,
2013-03-07 18:25:00,48.2,46.6,29.79,SSW,202,3.4,5.6,94,0.00,,,0.00,0.00,VWS V14.01,2013-03-08 02:25:00,
2013-03-07 18:30:00,48.2,46.8,29.79,SSW,202,2.7,5.6,95,0.00,,,0.00,0.00,VWS V14.01,2013-03-08 02:30:00,
2013-03-07 18:35:00,48.2,46.8,29.79,SSW,202,3.8,6.3,95,0.00,,,0.00,0.00,VWS V14.01,2013-03-08 02:35:00,
2013-03-07 18:40:00,48.2,46.8,29.79,South,180,4.0,6.3,95,0.00,,,0.00,0.00,VWS V14.01,2013-03-08 02:40:00,
2013-03-07 18:45:00,48.2,46.8,29.79,SSW,202,3.4,6.3,95,0.00,,,0.00,0.00,VWS V14.01,2013-03-08 02:45:00,
2013-03-07 18:50:00,48.4,46.5,29.79,South,180,2.5,4.3,93,0.00,,,0.00,0.00,VWS V14.01,2013-03-08 02:50:00,
2013-03-07 18:55:00,48.6,46.1,29.79,South,180,5.4,6.7,91,0.00,,,0.00,0.00,VWS V14.01,2013-03-08 02:55:00,
2013-03-07 19:00:00,48.6,46.1,29.79,SSW,202,3.8,3.8,91,0.00,,,0.00,0.00,VWS V14.01,2013-03-08 03:00:00,
2013-03-07 19:05:00,48.4,46.2,29.79,SW,225,4.9,6.0,92,0.00,,,0.00,0.00,VWS V14.01,2013-03-08 03:05:00,
2013-03-07 19:10:00,48.6,45.8,29.82,South,180,7.2,9.6,90,0.00,,,0.00,0.00,VWS V14.01,2013-03-08 03:10:00,
2013-03-07 19:15:00,48.7,45.0,29.82,South,180,3.6,5.4,87,0.00,,,0.00,0.00,VWS V14.01,2013-03-08 03:15:00,
2013-03-07 19:20:00,48.6,46.1,29.82,South,180,3.6,5.6,91,0.00,,,0.00,0.00,VWS V14.01,2013-03-08 03:20:00,
2013-03-07 19:25:00,48.7,45.3,29.82,SSW,202,4.3,7.8,88,0.00,,,0.00,0.00,VWS V14.01,2013-03-08 03:25:00,
2013-03-07 19:30:00,48.6,45.5,29.82,SSW,202,4.3,5.8,89,0.00,,,0.00,0.00,VWS V14.01,2013-03-08 03:30:00,
2013-03-07 19:35:00,48.4,45.6,29.82,SW,225,4.3,8.5,90,0.00,,,0.00,0.00,VWS V14.01,2013-03-08 03:35:00,
2013-03-07 19:40:00,48.2,45.7,29.82,SSW,202,5.6,8.5,91,0.00,,,0.00,0.00,VWS V14.01,2013-03-08 03:40:00,
2013-03-07 19:45:00,48.4,45.9,29.82,South,180,6.0,6.3,91,0.00,,,0.00,0.00,VWS V14.01,2013-03-08 03:45:00,
2013-03-07 19:50:00,48.4,45.9,29.82,South,180,5.6,8.1,91,0.00,,,0.00,0.00,VWS V14.01,2013-03-08 03:50:00,
2013-03-07 19:56:00,48.4,45.6,29.82,SSW,202,8.1,8.5,90,0.00,,,0.00,0.00,VWS V14.01,2013-03-08 03:56:00,
2013-03-07 20:00:00,48.4,47.6,29.82,South,180,5.8,12.8,97,0.00,,,0.00,0.00,VWS V14.01,2013-03-08 04:00:00,
2013-03-07 20:01:00,48.4,45.3,29.82,SSW,202,7.4,9.2,89,0.00,,,0.00,0.00,VWS V14.01,2013-03-08 04:01:00,
2013-03-07 20:06:00,48.4,45.6,29.82,SSW,202,8.7,10.3,90,0.00,,,0.00,0.00,VWS V14.01,2013-03-08 04:06:00,
2013-03-07 20:11:00,48.2,45.7,29.85,SSW,202,8.1,10.3,91,0.00,,,0.00,0.00,VWS V14.01,2013-03-08 04:11:00,
2013-03-07 20:15:00,48.4,47.0,29.82,SSW,202,12.1,12.5,95,0.00,,,0.00,0.00,VWS V14.01,2013-03-08 04:15:00,
2013-03-07 20:16:00,48.0,45.8,29.85,SSW,202,7.6,7.6,92,0.00,,,0.00,0.00,VWS V14.01,2013-03-08 04:16:00,
2013-03-07 20:21:00,48.0,46.1,29.85,SSW,202,4.9,8.1,93,0.00,,,0.00,0.00,VWS V14.01,2013-03-08 04:21:00,
2013-03-07 20:26:00,48.2,46.0,29.82,South,180,4.9,10.1,92,0.00,,,0.00,0.00,VWS V14.01,2013-03-08 04:26:00,
2013-03-07 20:30:00,48.4,47.6,29.85,South,180,4.9,12.1,97,0.00,,,0.00,0.00,VWS V14.01,2013-03-08 04:30:00,
2013-03-07 20:31:00,48.2,45.7,29.82,SW,225,2.9,6.3,91,0.00,,,0.00,0.00,VWS V14.01,2013-03-08 04:31:00,
2013-03-07 20:36:00,48.4,46.2,29.82,SW,225,5.4,10.3,92,0.00,,,0.00,0.00,VWS V14.01,2013-03-08 04:36:00,
2013-03-07 20:41:00,48.4,47.0,29.82,South,180,4.7,11.0,95,0.00,,,0.00,0.00,VWS V14.01,2013-03-08 04:41:00,
2013-03-07 20:45:00,48.4,47.8,29.85,SSW,202,2.2,11.0,98,0.00,,,0.00,0.00,VWS V14.01,2013-03-08 04:45:00,
2013-03-07 20:46:00,48.4,47.3,29.82,SSW,202,4.9,12.3,96,0.00,,,0.00,0.00,VWS V14.01,2013-03-08 04:46:00,
2013-03-07 20:51:00,48.4,47.6,29.82,South,180,7.4,12.3,97,0.00,,,0.00,0.00,VWS V14.01,2013-03-08 04:51:00,
2013-03-07 20:56:00,48.4,47.6,29.82,South,180,4.0,12.8,97,0.00,,,0.00,0.00,VWS V14.01,2013-03-08 04:56:00,
2013-03-07 21:00:00,48.4,47.6,29.82,South,180,5.8,12.8,97,0.00,,,0.00,0.00,VWS V14.01,2013-03-08 05:00:00,
2013-03-07 21:05:00,48.2,47.1,29.82,SSW,202,6.3,10.1,96,0.00,,,0.00,0.00,VWS V14.01,2013-03-08 05:05:00,
2013-03-07 21:06:00,48.2,47.1,29.82,South,180,8.5,10.1,96,0.00,,,0.00,0.00,VWS V14.01,2013-03-08 05:06:00,
2013-03-07 21:11:00,48.2,47.1,29.82,South,180,9.2,10.1,96,0.00,,,0.00,0.00,VWS V14.01,2013-03-08 05:11:00,
2013-03-07 21:15:00,48.0,48.0,29.85,South,180,4.0,7.8,100,0.00,,,0.00,0.00,VWS V14.01,2013-03-08 05:15:00,
2013-03-07 21:16:00,48.4,47.3,29.82,SW,225,3.4,12.1,96,0.00,,,0.00,0.00,VWS V14.01,2013-03-08 05:16:00,
2013-03-07 21:21:00,48.4,47.3,29.82,SSW,202,6.3,12.1,96,0.00,,,0.00,0.00,VWS V14.01,2013-03-08 05:21:00,
2013-03-07 21:24:00,48.6,47.8,29.85,South,180,8.5,12.1,97,0.00,,,0.00,0.00,VWS V14.01,2013-03-08 05:24:00,
2013-03-07 21:29:00,48.4,47.6,29.85,South,180,4.9,12.1,97,0.00,,,0.00,0.00,VWS V14.01,2013-03-08 05:29:00,
2013-03-07 21:30:00,48.0,48.0,29.82,SSW,202,2.5,7.6,100,0.00,,,0.00,0.00,VWS V14.01,2013-03-08 05:30:00,
2013-03-07 21:35:00,48.4,47.8,29.85,South,180,2.7,11.0,98,0.00,,,0.00,0.00,VWS V14.01,2013-03-08 05:35:00,
2013-03-07 21:40:00,48.4,47.8,29.85,South,180,4.3,11.0,98,0.00,,,0.00,0.00,VWS V14.01,2013-03-08 05:40:00,
2013-03-07 21:45:00,48.4,47.8,29.85,SSW,202,2.2,11.0,98,0.00,,,0.00,0.00,VWS V14.01,2013-03-08 05:45:00,
2013-03-07 21:50:00,48.2,47.7,29.85,SSW,202,2.9,4.9,98,0.00,,,0.00,0.00,VWS V14.01,2013-03-08 05:50:00,
2013-03-07 21:55:00,48.2,47.7,29.85,South,180,2.9,6.0,98,0.00,,,0.00,0.00,VWS V14.01,2013-03-08 05:55:00,
2013-03-07 22:00:00,48.2,47.7,29.85,SSW,202,2.5,2.9,98,0.00,,,0.00,0.00,VWS V14.01,2013-03-08 06:00:00,
2013-03-07 22:05:00,48.2,47.9,29.85,SSW,202,4.9,7.4,99,0.00,,,0.00,0.00,VWS V14.01,2013-03-08 06:05:00,
2013-03-07 22:10:00,48.0,47.8,29.85,SSW,202,5.4,7.8,99,0.00,,,0.00,0.00,VWS V14.01,2013-03-08 06:10:00,
2013-03-07 22:15:00,48.0,48.0,29.85,South,180,6.3,6.3,100,0.00,,,0.00,0.00,VWS V14.01,2013-03-08 06:15:00,
2013-03-07 22:20:00,48.0,48.0,29.85,SSE,158,3.8,7.2,100,0.00,,,0.00,0.00,VWS V14.01,2013-03-08 06:20:00,
2013-03-07 22:25:00,48.0,48.0,29.82,South,180,2.9,7.6,100,0.00,,,0.00,0.00,VWS V14.01,2013-03-08 06:25:00,
2013-03-07 22:30:00,48.0,48.0,29.82,SSW,202,3.1,3.1,100,0.00,,,0.00,0.00,VWS V14.01,2013-03-08 06:30:00,
2013-03-07 22:35:00,47.8,47.8,29.82,SSW,202,2.5,3.8,100,0.00,,,0.00,0.00,VWS V14.01,2013-03-08 06:35:00,
2013-03-07 22:40:00,47.8,47.8,29.82,SSW,202,2.5,4.7,100,0.00,,,0.00,0.00,VWS V14.01,2013-03-08 06:40:00,
2013-03-07 22:45:00,47.8,47.8,29.82,South,180,2.9,4.3,100,0.00,,,0.00,0.00,VWS V14.01,2013-03-08 06:45:00,
2013-03-07 22:50:00,47.8,47.8,29.82,SSW,202,3.1,5.4,100,0.00,,,0.00,0.00,VWS V14.01,2013-03-08 06:50:00,
2013-03-07 22:55:00,47.8,47.8,29.82,SSW,202,2.5,5.4,100,0.00,,,0.00,0.00,VWS V14.01,2013-03-08 06:55:00,
2013-03-07 23:00:00,47.8,47.8,29.82,SW,225,2.5,3.1,100,0.00,,,0.00,0.00,VWS V14.01,2013-03-08 07:00:00,
2013-03-07 23:05:00,47.7,47.7,29.82,SW,225,3.1,3.8,100,0.00,,,0.00,0.00,VWS V14.01,2013-03-08 07:05:00,
2013-03-07 23:10:00,47.5,47.5,29.82,South,180,2.7,4.7,100,0.00,,,0.00,0.00,VWS V14.01,2013-03-08 07:10:00,
2013-03-07 23:15:00,47.5,47.2,29.82,SSW,202,2.9,3.8,99,0.00,,,0.00,0.00,VWS V14.01,2013-03-08 07:15:00,
2013-03-07 23:20:00,47.5,47.2,29.82,SW,225,2.7,4.7,99,0.00,,,0.00,0.00,VWS V14.01,2013-03-08 07:20:00,
2013-03-07 23:25:00,47.7,47.4,29.79,South,180,2.0,4.7,99,0.00,,,0.00,0.00,VWS V14.01,2013-03-08 07:25:00,
2013-03-07 23:30:00,47.7,46.8,29.79,SSW,202,1.6,3.4,97,0.00,,,0.00,0.00,VWS V14.01,2013-03-08 07:30:00,
2013-03-07 23:35:00,47.5,47.0,29.79,SSW,202,3.1,3.4,98,0.00,,,0.00,0.00,VWS V14.01,2013-03-08 07:35:00,
2013-03-07 23:40:00,47.3,46.8,29.79,SSW,202,3.1,3.8,98,0.00,,,0.00,0.00,VWS V14.01,2013-03-08 07:40:00,
2013-03-07 23:45:00,47.3,46.8,29.79,SSW,202,1.3,2.0,98,0.00,,,0.00,0.00,VWS V14.01,2013-03-08 07:45:00,
2013-03-07 23:50:00,47.1,46.6,29.79,SSW,202,2.5,2.7,98,0.00,,,0.00,0.00,VWS V14.01,2013-03-08 07:50:00,
2013-03-07 23:55:00,47.1,46.9,29.79,South,180,0.0,2.7,99,0.00,,,0.00,0.00,VWS V14.01,2013-03-08 07:55:00,